createdAt,value
2018-08-20T00:00:03.442Z,96.30
2018-08-20T00:05:08.511Z,95.50
2018-08-20T00:10:13.244Z,95.60
2018-08-20T00:15:17.937Z,95.40
2018-08-20T00:20:23.408Z,95.70
2018-08-20T00:25:28.365Z,95.70
2018-08-20T00:30:33.093Z,96.60
2018-08-20T00:35:39.501Z,97.00
2018-08-20T00:40:44.569Z,96.60
2018-08-20T00:45:49.457Z,96.40
2018-08-20T00:50:54.188Z,96.20
2018-08-20T00:55:59.030Z,96.50
2018-08-20T01:01:04.652Z,96.10
2018-08-20T01:06:09.940Z,96.30
2018-08-20T01:11:15.767Z,95.90
2018-08-20T01:16:20.743Z,96.30
2018-08-20T01:21:26.199Z,96.80
2018-08-20T01:26:31.022Z,96.80
2018-08-20T01:31:35.683Z,97.40
2018-08-20T01:36:40.486Z,97.30
2018-08-20T01:41:45.248Z,97.40
2018-08-20T01:46:50.631Z,98.70
2018-08-20T01:51:55.554Z,98.90
2018-08-20T01:57:00.405Z,98.30
2018-08-20T02:02:05.222Z,97.10
2018-08-20T02:07:10.931Z,98.00
2018-08-20T02:12:15.696Z,97.50
2018-08-20T02:17:20.961Z,98.20
2018-08-20T02:22:26.296Z,99.60
2018-08-20T02:27:31.058Z,99.60
2018-08-20T02:32:36.248Z,99.60
2018-08-20T02:37:45.127Z,99.60
2018-08-20T02:42:51.233Z,99.60
2018-08-20T02:47:55.862Z,99.60
2018-08-20T02:53:00.532Z,99.60
2018-08-20T02:58:05.278Z,99.60
2018-08-20T03:03:09.969Z,99.60
2018-08-20T03:08:15.595Z,99.60
2018-08-20T03:13:20.525Z,99.60
2018-08-20T03:18:26.107Z,99.60
2018-08-20T03:23:30.839Z,99.60
2018-08-20T03:28:35.782Z,99.60
2018-08-20T03:33:40.799Z,99.60
2018-08-20T03:38:45.651Z,99.60
2018-08-20T03:43:50.553Z,99.60
2018-08-20T03:48:55.939Z,99.60
2018-08-20T03:54:00.669Z,99.60
2018-08-20T03:59:06.026Z,99.60
2018-08-20T04:04:10.678Z,99.60
2018-08-20T04:09:15.521Z,99.60
2018-08-20T04:14:20.224Z,99.60
2018-08-20T04:19:25.083Z,99.60
2018-08-20T04:24:29.848Z,99.60
2018-08-20T04:29:35.452Z,99.60
2018-08-20T04:34:41.366Z,99.60
2018-08-20T04:39:46.182Z,99.60
2018-08-20T04:44:51.024Z,99.60
2018-08-20T04:49:58.275Z,99.60
2018-08-20T04:55:03.230Z,99.60
2018-08-20T05:00:09.973Z,99.60
2018-08-20T05:05:15.836Z,99.60
2018-08-20T05:10:21.195Z,99.60
2018-08-20T05:15:26.290Z,99.60
2018-08-20T05:20:31.681Z,99.60
2018-08-20T05:25:36.395Z,99.60
2018-08-20T05:30:42.120Z,99.60
2018-08-20T05:35:47.342Z,99.60
2018-08-20T05:40:52.447Z,99.60
2018-08-20T05:45:57.157Z,99.60
2018-08-20T05:51:02.001Z,99.60
2018-08-20T05:56:06.727Z,99.60
2018-08-20T06:01:11.812Z,99.60
2018-08-20T06:06:16.502Z,99.60
2018-08-20T06:11:21.246Z,99.60
2018-08-20T06:16:26.148Z,99.60
2018-08-20T06:21:31.281Z,99.60
2018-08-20T06:26:36.770Z,99.60
2018-08-20T06:31:41.826Z,97.70
2018-08-20T06:36:46.712Z,95.60
2018-08-20T06:41:51.934Z,95.00
2018-08-20T06:46:56.766Z,95.40
2018-08-20T06:52:01.674Z,96.20
2018-08-20T06:57:06.633Z,95.60
2018-08-20T07:02:11.573Z,96.50
2018-08-20T07:07:16.443Z,95.50
2018-08-20T07:12:21.206Z,94.20
2018-08-20T07:17:26.722Z,93.10
2018-08-20T07:22:31.327Z,91.70
2018-08-20T07:27:37.839Z,92.20
2018-08-20T07:32:42.551Z,93.00
2018-08-20T07:37:47.533Z,91.60
2018-08-20T07:42:52.868Z,91.40
2018-08-20T07:47:57.999Z,87.80
2018-08-20T07:53:02.971Z,85.70
2018-08-20T07:58:08.088Z,87.20
2018-08-20T08:03:13.135Z,87.10
2018-08-20T08:08:18.319Z,86.70
2018-08-20T08:13:23.269Z,87.40
2018-08-20T08:18:28.046Z,88.80
2018-08-20T08:23:33.002Z,89.70
2018-08-20T08:28:38.330Z,89.00
2018-08-20T08:33:44.174Z,88.60
2018-08-20T08:38:49.341Z,89.90
2018-08-20T08:43:54.191Z,88.80
2018-08-20T08:48:59.054Z,89.00
2018-08-20T08:54:04.277Z,89.40
2018-08-20T08:59:09.336Z,89.70
2018-08-20T09:04:14.150Z,88.60
2018-08-20T09:09:19.093Z,89.20
2018-08-20T09:14:24.261Z,89.60
2018-08-20T09:19:29.469Z,89.80
2018-08-20T09:24:35.251Z,89.30
2018-08-20T09:29:41.402Z,89.20
2018-08-20T09:34:47.220Z,89.40
2018-08-20T09:39:52.470Z,88.20
2018-08-20T09:44:57.323Z,89.20
2018-08-20T09:50:02.149Z,87.60
2018-08-20T09:55:07.781Z,87.80
2018-08-20T10:00:23.372Z,87.80
2018-08-20T10:05:29.327Z,86.00
2018-08-20T10:10:34.315Z,86.00
2018-08-20T10:15:39.209Z,85.40
2018-08-20T10:20:44.447Z,84.00
2018-08-20T10:25:49.299Z,83.30
2018-08-20T10:30:54.346Z,82.00
2018-08-20T10:35:59.373Z,81.40
2018-08-20T10:41:04.260Z,82.00
2018-08-20T10:46:14.118Z,80.40
2018-08-20T10:51:18.904Z,78.90
2018-08-20T10:56:24.156Z,78.30
2018-08-20T11:01:28.980Z,78.90
2018-08-20T11:06:33.701Z,78.40
2018-08-20T11:11:38.736Z,79.20
2018-08-20T11:16:44.462Z,79.30
2018-08-20T11:21:50.039Z,77.00
2018-08-20T11:26:54.960Z,76.20
2018-08-20T11:31:59.660Z,74.90
2018-08-20T11:37:04.712Z,73.10
2018-08-20T11:42:09.699Z,71.00
2018-08-20T11:47:14.507Z,71.30
2018-08-20T11:52:19.294Z,70.10
2018-08-20T11:57:24.101Z,69.10
2018-08-20T12:02:29.097Z,66.80
2018-08-20T12:07:33.942Z,64.60
2018-08-20T12:12:39.381Z,63.80
2018-08-20T12:17:44.213Z,63.50
2018-08-20T12:22:49.359Z,61.90
2018-08-20T12:27:54.657Z,62.20
2018-08-20T12:32:59.610Z,62.40
2018-08-20T12:38:04.522Z,63.20
2018-08-20T12:43:09.391Z,62.50
2018-08-20T12:48:14.169Z,61.30
2018-08-20T12:53:19.150Z,60.70
2018-08-20T12:58:23.775Z,61.50
2018-08-20T13:03:28.610Z,61.50
2018-08-20T13:08:33.864Z,60.60
2018-08-20T13:13:38.615Z,62.50
2018-08-20T13:18:44.340Z,62.30
2018-08-20T13:23:50.156Z,62.00
2018-08-20T13:28:57.605Z,63.10
2018-08-20T13:34:13.021Z,64.50
2018-08-20T13:39:23.626Z,63.40
2018-08-20T13:44:32.923Z,63.10
2018-08-20T13:49:43.259Z,61.10
2018-08-20T13:54:48.236Z,62.30
2018-08-20T13:59:53.784Z,62.00
2018-08-20T14:05:02.748Z,62.00
2018-08-20T14:10:10.638Z,61.60
2018-08-20T14:15:15.817Z,61.90
2018-08-20T14:20:20.618Z,61.90
2018-08-20T14:25:26.162Z,60.50
2018-08-20T14:30:31.045Z,60.00
2018-08-20T14:35:36.506Z,59.70
2018-08-20T14:40:42.020Z,59.20
2018-08-20T14:45:51.870Z,57.30
2018-08-20T14:50:57.528Z,57.30
2018-08-20T14:56:02.347Z,59.70
2018-08-20T15:01:07.335Z,59.10
2018-08-20T15:06:12.282Z,58.90
2018-08-20T15:11:17.205Z,58.70
2018-08-20T15:16:22.348Z,59.00
2018-08-20T15:21:28.070Z,60.50
2018-08-20T15:26:32.940Z,59.20
2018-08-20T15:31:37.609Z,59.10
2018-08-20T15:36:42.600Z,63.50
2018-08-20T15:59:54.789Z,59.70
2018-08-20T16:05:00.170Z,61.60
2018-08-20T16:10:08.599Z,61.80
2018-08-20T16:15:13.628Z,61.10
2018-08-20T16:20:18.443Z,60.50
2018-08-20T16:25:26.440Z,59.70
2018-08-20T16:30:31.707Z,60.40
2018-08-20T16:35:36.566Z,63.60
2018-08-20T16:40:45.138Z,64.90
2018-08-20T16:45:51.154Z,69.00
2018-08-20T16:50:56.041Z,69.20
2018-08-20T16:56:00.878Z,65.60
2018-08-20T17:01:06.915Z,62.20
2018-08-20T17:06:12.128Z,62.40
2018-08-20T17:11:18.821Z,62.80
2018-08-20T17:16:23.812Z,63.10
2018-08-20T17:21:28.875Z,65.40
2018-08-20T17:26:33.869Z,68.70
2018-08-20T17:31:38.896Z,71.70
2018-08-20T17:36:43.888Z,73.40
2018-08-20T17:41:48.637Z,74.10
2018-08-20T17:46:55.085Z,75.10
2018-08-20T17:52:00.110Z,76.10
2018-08-20T17:57:05.154Z,76.80
2018-08-20T18:02:19.449Z,77.70
2018-08-20T18:07:24.737Z,78.60
2018-08-20T18:12:30.102Z,79.90
2018-08-20T18:17:34.915Z,81.60
2018-08-20T18:22:39.737Z,82.90
2018-08-20T18:27:45.331Z,84.30
2018-08-20T18:32:51.018Z,86.10
2018-08-20T18:37:55.844Z,86.90
2018-08-20T18:43:00.906Z,87.20
2018-08-20T18:48:05.991Z,87.30
2018-08-20T18:53:10.848Z,85.90
2018-08-20T18:58:15.959Z,85.90
2018-08-20T19:03:20.880Z,87.90
2018-08-20T19:08:27.048Z,89.40
2018-08-20T19:13:33.191Z,89.60
2018-08-20T19:18:38.475Z,90.00
2018-08-20T19:23:43.861Z,89.80
2018-08-20T19:28:48.985Z,88.20
2018-08-20T19:33:54.130Z,87.80
2018-08-20T19:38:59.143Z,85.70
2018-08-20T19:44:04.318Z,84.30
2018-08-20T19:49:15.981Z,84.00
2018-08-20T19:54:21.959Z,83.90
2018-08-20T19:59:32.458Z,83.70
2018-08-20T20:04:37.562Z,82.40
2018-08-20T20:09:46.723Z,82.10
2018-08-20T20:14:51.532Z,81.80
2018-08-20T20:19:56.386Z,81.80
2018-08-20T20:25:02.611Z,81.80
2018-08-20T20:30:08.522Z,81.70
2018-08-20T20:35:13.378Z,81.60
2018-08-20T20:40:18.281Z,81.80
2018-08-20T20:45:28.141Z,82.10
2018-08-20T20:50:33.359Z,82.40
2018-08-20T20:55:39.619Z,83.00
2018-08-20T21:00:45.571Z,83.40
2018-08-20T21:05:51.502Z,83.90
2018-08-20T21:10:58.048Z,84.50
2018-08-20T21:16:08.443Z,84.80
2018-08-20T21:21:15.426Z,85.30
2018-08-20T21:26:21.641Z,85.70
2018-08-20T21:31:27.985Z,86.10
2018-08-20T21:36:33.124Z,86.90
2018-08-20T21:41:38.586Z,87.10
2018-08-20T21:46:43.826Z,87.50
2018-08-20T21:51:57.149Z,87.90
2018-08-20T21:57:03.331Z,88.20
2018-08-20T22:02:08.328Z,88.30
2018-08-20T22:07:13.159Z,88.20
2018-08-20T22:12:18.446Z,88.00
2018-08-20T22:17:29.967Z,88.20
2018-08-20T22:22:34.641Z,88.60
2018-08-20T22:27:44.507Z,89.40
2018-08-20T22:32:50.552Z,90.10
2018-08-20T22:37:55.449Z,90.00
2018-08-20T22:43:01.503Z,90.70
2018-08-20T22:48:06.546Z,91.20
2018-08-20T22:53:11.814Z,91.50
2018-08-20T22:58:16.713Z,91.70
2018-08-20T23:03:21.423Z,92.60
2018-08-20T23:08:27.497Z,92.80
2018-08-20T23:13:32.363Z,93.30
2018-08-20T23:18:37.176Z,94.30
2018-08-20T23:23:42.039Z,95.00
2018-08-20T23:28:47.584Z,95.00
2018-08-20T23:33:52.467Z,95.10
2018-08-20T23:38:57.360Z,95.90
2018-08-20T23:44:02.198Z,96.40
2018-08-20T23:49:06.995Z,96.60
